CheckWX is a tool to help pilots better visualize weather data.  It is not intended as a substitute for an official pre-flight weather briefing.

20:00:21 UTC

DNMN METAR
Minna Airport
Minna, Nigeria
Current

60 mins ago

DNMN 211900Z 24005KT 9999 TS FEW012 FEW020CB 28/26 Q1012
Observed
Sep-21 @ 19:00 UTC
Wind
  • 240° at 5 KTS
Visibility
10,000+ meters
Flight Rules
VFR
Conditions
Thunderstorm
Cloud Levels
  • Few at 1,200' AGL
  • Few at 2,000' AGL
Temperature
28°C / 82°F
Dewpoint
26°C / 79°F
Heat Index
33°C / 91°F
Humidity
89%
Altimeter
29.88" Hg
Pressure
1011.92 hPa
Previous

6 hours ago

DNMN 211400Z 28006KT 9999 BKN013 32/24 Q1011
Observed
Sep-21 @ 14:00 UTC
Wind
  • 280° at 6 KTS
Visibility
10,000+ meters
Flight Rules
MVFR
Cloud Levels
  • Broken at 1,300' AGL
Temperature
32°C / 90°F
Dewpoint
24°C / 75°F
Heat Index
38°C / 101°F
Humidity
63%
Altimeter
29.85" Hg
Pressure
1010.92 hPa
Previous

7 hours ago

DNMN 211300Z 32009KT 9999 BKN013 31/23 Q1012
Observed
Sep-21 @ 13:00 UTC
Wind
  • 320° at 9 KTS
Visibility
10,000+ meters
Flight Rules
MVFR
Cloud Levels
  • Broken at 1,300' AGL
Temperature
31°C / 88°F
Dewpoint
23°C / 73°F
Heat Index
36°C / 96°F
Humidity
62%
Altimeter
29.88" Hg
Pressure
1011.92 hPa